Ringling, MT (59642)

06:58 AM MDT on Mei 22, 2015 (GMT -0600)
MesoWest | | Change Station
CLOSE
Current Station
Personal Weather Stations
Location: Ringling, MT
Elevation: 5870 ft
Nearby Weather Stations

Elev 5870 ft 46.35 °N, 111.07 °W | Updated 36 minutes ago

Mendung Sebagian
Mendung Sebagian
40 °F
Feels Like 40 °F
N
1
Angin Variable Angin from Dari Selatan ke Tenggara
Gusts 4.0 mph

Siang Ini
High -- | Low -- °F
--% Chance of Precip.
Yesterday
High -- | Low -- °F
Precip. -- Inch
5:43 AM 8:57 PM
Waxing Crescent, 21% visible
Tekanan 29.94 Inch
Jarak Pandang 10.0 Mil
Awan Mendung Merata 7500 ft
Angin Dingin 40 °F
Titik Embun 36 °F
Kelembaban 87%
Rainfall Inch
Snow Depth Not available.
UV 0 out of 12
Pollen 6.70 out of 12
Air Quality Not available.
Flu Activity Local Activity
METAR KBZN 221156Z 16003KT 10SM BKN075 04/03 A2998 RMK AO2 SLP139 70008 T00440028 10094 20022 51003

More Conditions Fewer Conditions

Tekanan 29.94 Inch
Jarak Pandang 10.0 Mil
Awan Mendung Merata 7500 ft
Angin Dingin 40 °F
Titik Embun 36 °F
Kelembaban 87%
Rainfall Inch
Snow Depth Not available.
UV 0 out of 12
Pollen 6.70 out of 12
Air Quality Not available.
Flu Activity Local Activity
METAR KBZN 221156Z 16003KT 10SM BKN075 04/03 A2998 RMK AO2 SLP139 70008 T00440028 10094 20022 51003

More Conditions Fewer Conditions

10-Day Weather Forecast

Almanac

Astronomi

May. 22, 2015 Rise Set
Actual Time
Civil Twilight
Nautical Twilight
Astronomical Twilight
Moon
Length Of Visible Light
Lama Satu Hari
Tomorrow will be .
, % of the Moon is Illuminated

Today's Extremes

State Highs State Lows

Community

WunderPhotos

Upload Photos

1,823,209 photos uploaded!

WunderBlogs® & News

Nearby

Air Quality

  Air Quality AQ Index Pollutant
Not available.

Snow Depth

Station Depth Elevation

Earthquake Activity

City Distance Mag. Time & Date
Minimum magnitude displayed is 2.5.

Coastal Water Temperatures

Lokasi Temperatur

Stations

Nearby Weather Stations

Station Location Temp Angin Dingin Titik Embun Kelembaban Angin Precip. Elev Telah Diperbaharui Type